| time (UTC) | temp F | wind direction | speed knots | gust knots | rain 1hr in | rain 24hr in | rain mn in | humidity % | barometer mb |
| 20260504214002 | 69 | 188 | 8.7 | 16.5 | 0.00 | 0.00 | 0.00 | 23 | 1006.7 |
| 20260504213502 | 69 | 262 | 7.0 | 13.9 | 0.00 | 0.00 | 0.00 | 24 | 1006.8 |
| 20260504213109 | 69 | 255 | 7.0 | 11.3 | 0.00 | 0.00 | 0.00 | 23 | 1006.7 |
| 20260504212559 | 69 | 280 | 3.5 | 11.3 | 0.00 | 0.00 | 0.00 | 23 | 1006.8 |
| 20260504212058 | 69 | 252 | 6.1 | 14.8 | 0.00 | 0.00 | 0.00 | 24 | 1006.7 |
| 20260504211651 | 69 | 159 | 7.8 | 14.8 | 0.00 | 0.00 | 0.00 | 23 | 1006.8 |
| 20260504211056 | 69 | 229 | 4.3 | 10.4 | 0.00 | 0.00 | 0.00 | 24 | 1006.8 |
| 20260504210556 | 68 | 264 | 1.7 | 11.3 | 0.00 | 0.00 | 0.00 | 26 | 1006.8 |
| 20260504210055 | 68 | 248 | 7.8 | 11.3 | 0.00 | 0.00 | 0.00 | 23 | 1006.7 |
| 20260504205556 | 68 | 251 | 3.5 | 11.3 | 0.00 | 0.00 | 0.00 | 25 | 1006.9 |
| 20260504205053 | 69 | 251 | 7.0 | 13.0 | 0.00 | 0.00 | 0.00 | 23 | 1006.8 |
| 20260504204553 | 68 | 238 | 7.0 | 12.2 | 0.00 | 0.00 | 0.00 | 24 | 1006.7 |
| 20260504204053 | 68 | 257 | 2.6 | 13.0 | 0.00 | 0.00 | 0.00 | 25 | 1006.7 |
| 20260504203552 | 68 | 241 | 7.8 | 18.2 | 0.00 | 0.00 | 0.00 | 24 | 1007.0 |
| 20260504203050 | 68 | 212 | 9.6 | 18.2 | 0.00 | 0.00 | 0.00 | 23 | 1006.8 |
| 20260504202550 | 69 | 221 | 7.0 | 15.6 | 0.00 | 0.00 | 0.00 | 22 | 1006.9 |
| 20260504202150 | 70 | 226 | 7.8 | 15.6 | 0.00 | 0.00 | 0.00 | 24 | 1006.9 |
| 20260504201550 | 69 | 258 | 4.3 | 10.4 | 0.00 | 0.00 | 0.00 | 24 | 1006.9 |
| 20260504201047 | 69 | 238 | 3.5 | 11.3 | 0.00 | 0.00 | 0.00 | 27 | 1006.9 |
| 20260504200546 | 69 | 258 | 7.0 | 11.3 | 0.00 | 0.00 | 0.00 | 23 | 1006.9 |
| 20260504200046 | 69 | 209 | 4.3 | 8.7 | 0.00 | 0.00 | 0.00 | 23 | 1006.9 |
| 20260504195544 | 69 | 227 | 3.5 | 7.8 | 0.00 | 0.00 | 0.00 | 24 | 1007.0 |
| 20260504195044 | 68 | 272 | 3.5 | 10.4 | 0.00 | 0.00 | 0.00 | 24 | 1006.9 |
| 20260504194550 | 69 | 262 | 5.2 | 10.4 | 0.00 | 0.00 | 0.00 | 22 | 1006.9 |
| 20260504194043 | 69 | 47 | 3.5 | 11.3 | 0.00 | 0.00 | 0.00 | 24 | 1007.0 |
| 20260504193542 | 69 | 212 | 3.5 | 16.5 | 0.00 | 0.00 | 0.00 | 24 | 1007.0 |
| 20260504193042 | 69 | 219 | 8.7 | 20.9 | 0.00 | 0.00 | 0.00 | 23 | 1006.9 |
| 20260504192541 | 69 | 255 | 8.7 | 17.4 | 0.00 | 0.00 | 0.00 | 21 | 1006.9 |
| 20260504192141 | 70 | 251 | 6.1 | 13.9 | 0.00 | 0.00 | 0.00 | 21 | 1007.1 |
| 20260504191545 | 70 | 266 | 5.2 | 16.5 | 0.00 | 0.00 | 0.00 | 23 | 1007.0 |
| 20260504191037 | 69 | 275 | 5.2 | 16.5 | 0.00 | 0.00 | 0.00 | 23 | 1006.9 |
| 20260504190536 | 69 | 216 | 6.1 | 14.8 | 0.00 | 0.00 | 0.00 | 24 | 1006.9 |
| 20260504190043 | 68 | 217 | 6.1 | 21.7 | 0.00 | 0.00 | 0.00 | 24 | 1007.0 |
| 20260504185634 | 68 | 228 | 11.3 | 21.7 | 0.00 | 0.00 | 0.00 | 21 | 1006.9 |
| 20260504185033 | 69 | 216 | 8.7 | 18.2 | 0.00 | 0.00 | 0.00 | 20 | 1007.0 |
| 20260504184544 | 68 | 247 | 7.0 | 15.6 | 0.00 | 0.00 | 0.00 | 21 | 1007.1 |
| 20260504184031 | 68 | 250 | 8.7 | 13.9 | 0.00 | 0.00 | 0.00 | 21 | 1007.2 |
| 20260504183531 | 68 | 264 | 3.5 | 17.4 | 0.00 | 0.00 | 0.00 | 24 | 1007.3 |
| 20260504183029 | 68 | 237 | 7.8 | 17.4 | 0.00 | 0.00 | 0.00 | 23 | 1007.3 |
| 20260504182528 | 68 | 217 | 9.6 | 16.5 | 0.00 | 0.00 | 0.00 | 20 | 1007.4 |
| 20260504182027 | 68 | 241 | 7.8 | 17.4 | 0.00 | 0.00 | 0.00 | 22 | 1007.7 |
| 20260504181525 | 68 | 248 | 8.7 | 20.0 | 0.00 | 0.00 | 0.00 | 22 | 1007.8 |
| 20260504181024 | 68 | 231 | 7.0 | 21.7 | 0.00 | 0.00 | 0.00 | 22 | 1007.7 |
| 20260504180523 | 67 | 184 | 8.7 | 21.7 | 0.00 | 0.00 | 0.00 | 21 | 1007.8 |
| 20260504180024 | 68 | 260 | 7.0 | 14.8 | 0.00 | 0.00 | 0.00 | 20 | 1007.8 |
| 20260504175520 | 67 | 262 | 7.8 | 17.4 | 0.00 | 0.00 | 0.00 | 21 | 1007.8 |
| 20260504175023 | 67 | 301 | 8.7 | 17.4 | 0.00 | 0.00 | 0.00 | 22 | 1007.8 |
| 20260504174518 | 67 | 187 | 7.8 | 16.5 | 0.00 | 0.00 | 0.00 | 23 | 1007.8 |
| 20260504174017 | 67 | 268 | 8.7 | 19.1 | 0.00 | 0.00 | 0.00 | 21 | 1007.8 |
| 20260504173516 | 67 | 223 | 6.1 | 19.1 | 0.00 | 0.00 | 0.00 | 25 | 1007.8 |
| 20260504173015 | 66 | 204 | 12.2 | 19.1 | 0.00 | 0.00 | 0.00 | 22 | 1007.8 |
| 20260504172514 | 66 | 213 | 9.6 | 19.1 | 0.00 | 0.00 | 0.00 | 22 | 1007.9 |
| 20260504172012 | 66 | 145 | 7.8 | 18.2 | 0.00 | 0.00 | 0.00 | 23 | 1007.9 |
| 20260504171514 | 66 | 224 | 8.7 | 18.2 | 0.00 | 0.00 | 0.00 | 23 | 1007.9 |
| 20260504171010 | 66 | 257 | 9.6 | 21.7 | 0.00 | 0.00 | 0.00 | 23 | 1008.0 |
| 20260504170509 | 66 | 214 | 9.6 | 18.2 | 0.00 | 0.00 | 0.00 | 22 | 1008.0 |
| 20260504151038 | 61 | 245 | 7.0 | 16.5 | 0.00 | 0.00 | 0.00 | 29 | 1009.4 |
| 20260504150538 | 61 | 219 | 8.7 | 14.8 | 0.00 | 0.00 | 0.00 | 30 | 1009.4 |
| 20260504141025 | 60 | 235 | 6.1 | 15.6 | 0.00 | 0.00 | 0.00 | 32 | 1009.6 |
| 20260504140525 | 59 | 244 | 6.1 | 11.3 | 0.00 | 0.00 | 0.00 | 33 | 1009.7 |
| 20260504130508 | 57 | 238 | 6.1 | 13.0 | 0.00 | 0.00 | 0.00 | 37 | 1010.3 |
| 20260504120147 | 49 | 252 | 4.3 | 10.4 | 0.00 | 0.00 | 0.00 | 43 | 1010.9 |
| 20260504110531 | 47 | 246 | 2.6 | 6.1 | 0.00 | 0.00 | 0.00 | 46 | 1010.7 |
| 20260504100515 | 44 | 200 | 0.9 | 6.1 | 0.00 | 0.00 | 0.00 | 49 | 1011.2 |
| 20260504081556 | 41 | 230 | 0.0 | 0.9 | 0.00 | 0.00 | 0.00 | 57 | 1011.0 |
| 20260504081056 | 41 | 229 | 0.0 | 0.9 | 0.00 | 0.00 | 0.00 | 57 | 1010.9 |
| 20260504080554 | 41 | 228 | 0.0 | 0.0 | 0.00 | 0.00 | 0.00 | 58 | 1010.9 |
| 20260504070145 | 41 | 204 | 0.0 | 0.0 | 0.00 | 0.00 | 0.00 | 58 | 1010.4 |
| 20260504050522 | 39 | 298 | 0.0 | 0.0 | 0.00 | 0.00 | 0.00 | 55 | 1010.8 |
| 20260504045519 | 39 | 298 | 0.0 | 1.7 | 0.00 | 0.00 | 0.00 | 51 | 1010.8 |
| 20260504045016 | 39 | 298 | 0.0 | 1.7 | 0.00 | 0.00 | 0.00 | 53 | 1010.8 |
| 20260504044517 | 38 | 293 | 0.9 | 0.9 | 0.00 | 0.00 | 0.00 | 55 | 1011.0 |
| 20260504044014 | 36 | 293 | 0.0 | 0.9 | 0.00 | 0.00 | 0.00 | 58 | 1011.0 |
| 20260504043513 | 36 | 293 | 0.0 | 0.0 | 0.00 | 0.00 | 0.00 | 58 | 1011.0 |
| 20260504043015 | 36 | 293 | 0.0 | 1.7 | 0.00 | 0.00 | 0.00 | 58 | 1010.9 |
| 20260504042510 | 36 | 293 | 0.9 | 1.7 | 0.00 | 0.00 | 0.00 | 57 | 1010.8 |
| 20260504042008 | 36 | 228 | 0.0 | 0.9 | 0.00 | 0.00 | 0.00 | 58 | 1010.9 |
| 20260504041506 | 36 | 301 | 0.0 | 0.0 | 0.00 | 0.00 | 0.00 | 56 | 1010.7 |
| 20260504041005 | 37 | 301 | 0.0 | 0.9 | 0.00 | 0.00 | 0.00 | 54 | 1010.7 |
| 20260504040503 | 37 | 301 | 0.9 | 1.7 | 0.00 | 0.00 | 0.00 | 54 | 1010.7 |
| 20260504040137 | 36 | 301 | 0.9 | 1.7 | 0.00 | 0.00 | 0.00 | 56 | 1010.6 |
| 20260504035601 | 35 | 299 | 0.0 | 0.9 | 0.00 | 0.00 | 0.00 | 58 | 1010.6 |
| 20260504035100 | 35 | 294 | 0.0 | 1.7 | 0.00 | 0.00 | 0.00 | 57 | 1010.6 |
| 20260504034603 | 35 | 294 | 0.9 | 1.7 | 0.00 | 0.00 | 0.00 | 58 | 1010.6 |
| 20260504034059 | 35 | 293 | 0.9 | 1.7 | 0.00 | 0.00 | 0.00 | 59 | 1010.6 |
| 20260504033558 | 35 | 293 | 0.9 | 1.7 | 0.00 | 0.00 | 0.00 | 60 | 1010.5 |
| 20260504033057 | 35 | 293 | 0.9 | 0.9 | 0.00 | 0.00 | 0.00 | 60 | 1010.5 |
| 20260504032556 | 35 | 293 | 0.9 | 0.9 | 0.00 | 0.00 | 0.00 | 60 | 1010.4 |
| 20260504032055 | 35 | 293 | 0.0 | 0.0 | 0.00 | 0.00 | 0.00 | 59 | 1010.5 |
| 20260504031601 | 36 | 293 | 0.0 | 0.9 | 0.00 | 0.00 | 0.00 | 58 | 1010.3 |
| 20260504031052 | 36 | 290 | 0.9 | 1.7 | 0.00 | 0.00 | 0.00 | 57 | 1010.3 |
| 20260504030551 | 36 | 290 | 0.9 | 1.7 | 0.00 | 0.00 | 0.00 | 57 | 1010.4 |
| 20260504030049 | 36 | 278 | 1.7 | 1.7 | 0.00 | 0.00 | 0.00 | 57 | 1010.3 |
| 20260504025554 | 36 | 278 | 0.9 | 1.7 | 0.00 | 0.00 | 0.00 | 58 | 1010.2 |
| 20260504025050 | 36 | 278 | 0.9 | 1.7 | 0.00 | 0.00 | 0.00 | 58 | 1010.3 |
| 20260504024549 | 36 | 278 | 0.9 | 1.7 | 0.00 | 0.00 | 0.00 | 58 | 1010.2 |
| 20260504024045 | 37 | 273 | 0.9 | 1.7 | 0.00 | 0.00 | 0.00 | 57 | 1010.2 |
| 20260504023543 | 37 | 273 | 0.9 | 1.7 | 0.00 | 0.00 | 0.00 | 56 | 1010.1 |
| 20260504023042 | 37 | 273 | 0.9 | 1.7 | 0.00 | 0.00 | 0.00 | 54 | 1010.1 |
| 20260504022542 | 38 | 273 | 0.9 | 1.7 | 0.00 | 0.00 | 0.00 | 53 | 1010.1 |
| 20260504022041 | 38 | 273 | 0.0 | 1.7 | 0.00 | 0.00 | 0.00 | 53 | 1010.0 |
| 20260504021540 | 38 | 273 | 0.9 | 1.7 | 0.00 | 0.00 | 0.00 | 54 | 1010.1 |
| 20260504021040 | 38 | 250 | 0.9 | 1.7 | 0.00 | 0.00 | 0.00 | 55 | 1010.1 |
| 20260504020538 | 38 | 250 | 0.0 | 1.7 | 0.00 | 0.00 | 0.00 | 53 | 1010.1 |
| 20260504020038 | 39 | 293 | 0.9 | 1.7 | 0.00 | 0.00 | 0.00 | 52 | 1010.0 |
| 20260504015538 | 39 | 293 | 0.9 | 1.7 | 0.00 | 0.00 | 0.00 | 50 | 1010.0 |
| 20260504015037 | 40 | 293 | 0.9 | 1.7 | 0.00 | 0.00 | 0.00 | 48 | 1010.0 |
| 20260504014540 | 40 | 293 | 0.9 | 1.7 | 0.00 | 0.00 | 0.00 | 47 | 1009.9 |
| 20260504014035 | 41 | 293 | 0.9 | 1.7 | 0.00 | 0.00 | 0.00 | 47 | 1009.8 |
| 20260504013535 | 41 | 293 | 0.9 | 1.7 | 0.00 | 0.00 | 0.00 | 47 | 1009.9 |
| 20260504013040 | 41 | 293 | 0.9 | 1.7 | 0.00 | 0.00 | 0.00 | 46 | 1009.9 |
| 20260504012533 | 42 | 293 | 0.9 | 1.7 | 0.00 | 0.00 | 0.00 | 45 | 1009.8 |
| 20260504012033 | 42 | 288 | 0.9 | 1.7 | 0.00 | 0.00 | 0.00 | 44 | 1009.8 |
| 20260504011537 | 42 | 288 | 0.9 | 1.7 | 0.00 | 0.00 | 0.00 | 43 | 1009.7 |
| 20260504011031 | 43 | 288 | 0.9 | 1.7 | 0.00 | 0.00 | 0.00 | 42 | 1009.7 |
| 20260504010532 | 43 | 288 | 0.9 | 1.7 | 0.00 | 0.00 | 0.00 | 42 | 1009.6 |
| 20260504010030 | 43 | 288 | 0.0 | 1.7 | 0.00 | 0.00 | 0.00 | 41 | 1009.5 |
| 20260504005530 | 44 | 288 | 0.0 | 0.0 | 0.00 | 0.00 | 0.00 | 40 | 1009.4 |
| 20260504005029 | 44 | 288 | 0.0 | 0.0 | 0.00 | 0.00 | 0.00 | 40 | 1009.4 |
| 20260504004530 | 44 | 288 | 0.0 | 0.0 | 0.00 | 0.00 | 0.00 | 40 | 1009.3 |
| 20260504004028 | 44 | 288 | 0.0 | 0.0 | 0.00 | 0.00 | 0.00 | 40 | 1009.3 |
| 20260504003527 | 45 | 288 | 0.0 | 0.0 | 0.00 | 0.00 | 0.00 | 38 | 1009.3 |
| 20260504003031 | 45 | 288 | 0.0 | 0.0 | 0.00 | 0.00 | 0.00 | 37 | 1009.1 |
| 20260504002526 | 45 | 288 | 0.0 | 0.0 | 0.00 | 0.00 | 0.00 | 36 | 1009.1 |
| 20260504002026 | 45 | 288 | 0.0 | 0.0 | 0.00 | 0.00 | 0.00 | 36 | 1009.0 |
| 20260504001526 | 46 | 288 | 0.0 | 0.0 | 0.00 | 0.00 | 0.00 | 35 | 1008.9 |
| 20260504001025 | 46 | 288 | 0.0 | 0.9 | 0.00 | 0.00 | 0.00 | 35 | 1008.9 |
| 20260504000524 | 46 | 288 | 0.0 | 0.9 | 0.00 | 0.00 | 0.00 | 34 | 1008.9 |
| 20260504000023 | 47 | 288 | 0.0 | 1.7 | 0.00 | 0.00 | 0.00 | 34 | 1008.8 |
| 20260503235522 | 47 | 288 | 0.0 | 1.7 | 0.00 | 0.00 | 0.00 | 34 | 1008.8 |
| 20260503235021 | 47 | 288 | 0.9 | 2.6 | 0.00 | 0.00 | 0.00 | 33 | 1008.7 |
| 20260503234524 | 48 | 307 | 0.0 | 5.2 | 0.00 | 0.00 | 0.00 | 34 | 1008.8 |
| 20260503234021 | 48 | 305 | 0.9 | 7.8 | 0.00 | 0.00 | 0.00 | 33 | 1008.7 |
| 20260503233521 | 48 | 297 | 2.6 | 7.8 | 0.00 | 0.00 | 0.00 | 32 | 1008.7 |
| 20260503233031 | 49 | 306 | 1.7 | 7.0 | 0.00 | 0.00 | 0.00 | 32 | 1008.7 |
| 20260503232620 | 49 | 273 | 1.7 | 8.7 | 0.00 | 0.00 | 0.00 | 31 | 1008.6 |
| 20260503232018 | 49 | 279 | 3.5 | 8.7 | 0.00 | 0.00 | 0.00 | 31 | 1008.5 |
| 20260503231517 | 49 | 276 | 1.7 | 7.8 | 0.00 | 0.00 | 0.00 | 31 | 1008.4 |
| 20260503231017 | 49 | 293 | 2.6 | 6.1 | 0.00 | 0.00 | 0.00 | 31 | 1008.4 |
| 20260503230515 | 49 | 243 | 2.6 | 6.1 | 0.00 | 0.00 | 0.00 | 31 | 1008.4 |
| 20260503230015 | 50 | 312 | 0.9 | 6.1 | 0.00 | 0.00 | 0.00 | 31 | 1008.4 |
| 20260503225515 | 50 | 172 | 1.7 | 5.2 | 0.00 | 0.00 | 0.00 | 33 | 1008.3 |
| 20260503225014 | 50 | 278 | 0.9 | 7.8 | 0.00 | 0.00 | 0.00 | 31 | 1008.3 |
| 20260503224514 | 50 | 342 | 1.7 | 4.3 | 0.00 | 0.00 | 0.00 | 32 | 1008.2 |
| 20260503224013 | 50 | 287 | 2.6 | 6.1 | 0.00 | 0.00 | 0.00 | 31 | 1008.2 |
| 20260503223513 | 50 | 291 | 1.7 | 7.8 | 0.00 | 0.00 | 0.00 | 33 | 1008.1 |
| 20260503223012 | 49 | 316 | 1.7 | 7.8 | 0.00 | 0.00 | 0.00 | 32 | 1008.3 |
| 20260503222511 | 49 | 326 | 1.7 | 5.2 | 0.00 | 0.00 | 0.00 | 34 | 1008.1 |
| 20260503222011 | 49 | 257 | 1.7 | 7.0 | 0.00 | 0.00 | 0.00 | 33 | 1008.1 |
| 20260503221517 | 50 | 302 | 1.7 | 8.7 | 0.00 | 0.00 | 0.00 | 33 | 1008.1 |
| 20260503221009 | 50 | 328 | 3.5 | 12.2 | 0.00 | 0.00 | 0.00 | 32 | 1008.0 |
| 20260503220508 | 49 | 319 | 4.3 | 12.2 | 0.00 | 0.00 | 0.00 | 31 | 1008.0 |
| 20260503220007 | 49 | 293 | 4.3 | 9.6 | 0.00 | 0.00 | 0.00 | 32 | 1008.0 |
| 20260503215508 | 50 | 297 | 4.3 | 8.7 | 0.00 | 0.00 | 0.00 | 30 | 1008.1 |
| 20260503215008 | 50 | 334 | 5.2 | 10.4 | 0.00 | 0.00 | 0.00 | 30 | 1008.0 |
| 20260503214508 | 50 | 288 | 3.5 | 10.4 | 0.00 | 0.00 | 0.00 | 30 | 1008.1 |